sensor_id;sensor_type;location;lat;lon;timestamp;temperature;humidity
37782;DHT22;23621;50.878;4.584;2022-09-02T00:01:38;23.60;58.40
37782;DHT22;23621;50.878;4.584;2022-09-02T00:04:12;23.60;58.50
37782;DHT22;23621;50.878;4.584;2022-09-02T00:06:41;23.60;58.50
37782;DHT22;23621;50.878;4.584;2022-09-02T00:09:10;23.50;58.50
37782;DHT22;23621;50.878;4.584;2022-09-02T00:11:39;23.50;58.40
37782;DHT22;23621;50.878;4.584;2022-09-02T00:14:10;23.50;58.40
37782;DHT22;23621;50.878;4.584;2022-09-02T00:16:38;23.50;58.50
37782;DHT22;23621;50.878;4.584;2022-09-02T00:19:07;23.40;58.50
37782;DHT22;23621;50.878;4.584;2022-09-02T00:21:34;23.50;58.50
37782;DHT22;23621;50.878;4.584;2022-09-02T00:24:03;23.40;58.40
37782;DHT22;23621;50.878;4.584;2022-09-02T00:26:30;23.40;58.50
37782;DHT22;23621;50.878;4.584;2022-09-02T00:28:57;23.40;58.40
37782;DHT22;23621;50.878;4.584;2022-09-02T00:31:25;23.40;58.30
37782;DHT22;23621;50.878;4.584;2022-09-02T00:33:53;23.40;58.30
37782;DHT22;23621;50.878;4.584;2022-09-02T00:36:20;23.30;58.30
37782;DHT22;23621;50.878;4.584;2022-09-02T00:38:47;23.30;58.40
37782;DHT22;23621;50.878;4.584;2022-09-02T00:41:15;23.30;58.60
37782;DHT22;23621;50.878;4.584;2022-09-02T00:46:09;23.20;58.50
37782;DHT22;23621;50.878;4.584;2022-09-02T00:48:39;23.20;58.50
37782;DHT22;23621;50.878;4.584;2022-09-02T00:51:08;23.20;58.60
37782;DHT22;23621;50.878;4.584;2022-09-02T00:53:38;23.20;58.60
37782;DHT22;23621;50.878;4.584;2022-09-02T00:56:10;23.20;58.70
37782;DHT22;23621;50.878;4.584;2022-09-02T00:58:39;23.20;58.80
37782;DHT22;23621;50.878;4.584;2022-09-02T01:01:09;23.10;58.70
37782;DHT22;23621;50.878;4.584;2022-09-02T01:03:40;23.10;58.70
37782;DHT22;23621;50.878;4.584;2022-09-02T01:06:09;23.10;58.70
37782;DHT22;23621;50.878;4.584;2022-09-02T01:08:44;23.10;58.80
37782;DHT22;23621;50.878;4.584;2022-09-02T01:11:12;23.10;59.00
37782;DHT22;23621;50.878;4.584;2022-09-02T01:13:41;23.00;59.00
37782;DHT22;23621;50.878;4.584;2022-09-02T01:16:58;23.00;59.10
37782;DHT22;23621;50.878;4.584;2022-09-02T01:19:26;23.00;59.20
37782;DHT22;23621;50.878;4.584;2022-09-02T01:21:55;22.90;59.90
37782;DHT22;23621;50.878;4.584;2022-09-02T01:24:27;22.90;59.20
37782;DHT22;23621;50.878;4.584;2022-09-02T01:26:56;22.80;59.30
37782;DHT22;23621;50.878;4.584;2022-09-02T01:29:25;22.80;59.40
37782;DHT22;23621;50.878;4.584;2022-09-02T01:31:53;22.80;60.10
37782;DHT22;23621;50.878;4.584;2022-09-02T01:34:20;22.70;59.40
37782;DHT22;23621;50.878;4.584;2022-09-02T01:36:47;22.70;59.50
37782;DHT22;23621;50.878;4.584;2022-09-02T01:39:14;22.70;59.70
37782;DHT22;23621;50.878;4.584;2022-09-02T01:41:41;22.70;59.80
37782;DHT22;23621;50.878;4.584;2022-09-02T01:44:08;22.70;59.80
37782;DHT22;23621;50.878;4.584;2022-09-02T01:46:36;22.60;59.80
37782;DHT22;23621;50.878;4.584;2022-09-02T01:49:03;22.60;59.80
37782;DHT22;23621;50.878;4.584;2022-09-02T01:51:30;22.60;59.90
37782;DHT22;23621;50.878;4.584;2022-09-02T01:53:57;22.60;60.00
37782;DHT22;23621;50.878;4.584;2022-09-02T01:56:24;22.60;60.00
37782;DHT22;23621;50.878;4.584;2022-09-02T01:58:50;22.60;60.10
37782;DHT22;23621;50.878;4.584;2022-09-02T02:01:18;22.60;60.10
37782;DHT22;23621;50.878;4.584;2022-09-02T02:03:45;22.50;60.00
37782;DHT22;23621;50.878;4.584;2022-09-02T02:06:15;22.50;60.10
37782;DHT22;23621;50.878;4.584;2022-09-02T02:08:43;22.50;60.10
37782;DHT22;23621;50.878;4.584;2022-09-02T02:11:10;22.50;60.10
37782;DHT22;23621;50.878;4.584;2022-09-02T02:13:37;22.50;60.20
37782;DHT22;23621;50.878;4.584;2022-09-02T02:16:05;22.50;60.10
37782;DHT22;23621;50.878;4.584;2022-09-02T02:18:32;22.50;60.10
37782;DHT22;23621;50.878;4.584;2022-09-02T02:20:59;22.40;60.10
37782;DHT22;23621;50.878;4.584;2022-09-02T02:23:26;22.40;60.10
37782;DHT22;23621;50.878;4.584;2022-09-02T02:25:52;22.40;60.20
37782;DHT22;23621;50.878;4.584;2022-09-02T02:28:19;22.30;60.20
37782;DHT22;23621;50.878;4.584;2022-09-02T02:30:46;22.30;60.30
37782;DHT22;23621;50.878;4.584;2022-09-02T02:33:14;22.30;60.40
37782;DHT22;23621;50.878;4.584;2022-09-02T02:35:41;22.30;60.50
37782;DHT22;23621;50.878;4.584;2022-09-02T02:38:08;22.30;60.50
37782;DHT22;23621;50.878;4.584;2022-09-02T02:40:39;22.30;60.50
37782;DHT22;23621;50.878;4.584;2022-09-02T02:43:06;22.30;60.50
37782;DHT22;23621;50.878;4.584;2022-09-02T02:45:33;22.30;60.50
37782;DHT22;23621;50.878;4.584;2022-09-02T02:48:00;22.30;60.60
37782;DHT22;23621;50.878;4.584;2022-09-02T02:50:28;22.30;60.70
37782;DHT22;23621;50.878;4.584;2022-09-02T02:52:54;22.30;60.70
37782;DHT22;23621;50.878;4.584;2022-09-02T02:55:22;22.30;60.60
37782;DHT22;23621;50.878;4.584;2022-09-02T02:57:50;22.30;60.60
37782;DHT22;23621;50.878;4.584;2022-09-02T03:00:25;22.30;60.70
37782;DHT22;23621;50.878;4.584;2022-09-02T03:02:55;22.30;60.70
37782;DHT22;23621;50.878;4.584;2022-09-02T03:05:23;22.30;60.70
37782;DHT22;23621;50.878;4.584;2022-09-02T03:07:49;22.30;60.70
37782;DHT22;23621;50.878;4.584;2022-09-02T03:10:17;22.30;60.80
37782;DHT22;23621;50.878;4.584;2022-09-02T03:12:44;22.20;60.70
37782;DHT22;23621;50.878;4.584;2022-09-02T03:15:15;22.20;60.70
37782;DHT22;23621;50.878;4.584;2022-09-02T03:17:46;22.20;60.70
37782;DHT22;23621;50.878;4.584;2022-09-02T03:20:15;22.20;60.60
37782;DHT22;23621;50.878;4.584;2022-09-02T03:22:43;22.20;60.60
37782;DHT22;23621;50.878;4.584;2022-09-02T03:25:12;22.20;60.70
37782;DHT22;23621;50.878;4.584;2022-09-02T03:27:40;22.20;60.70
37782;DHT22;23621;50.878;4.584;2022-09-02T03:30:09;22.20;60.80
37782;DHT22;23621;50.878;4.584;2022-09-02T03:32:37;22.20;60.90
37782;DHT22;23621;50.878;4.584;2022-09-02T03:35:05;22.20;61.20
37782;DHT22;23621;50.878;4.584;2022-09-02T03:37:34;22.20;60.80
37782;DHT22;23621;50.878;4.584;2022-09-02T03:40:03;22.20;60.90
37782;DHT22;23621;50.878;4.584;2022-09-02T03:42:31;22.20;60.80
37782;DHT22;23621;50.878;4.584;2022-09-02T03:44:57;22.20;60.80
37782;DHT22;23621;50.878;4.584;2022-09-02T03:47:25;22.20;60.70
37782;DHT22;23621;50.878;4.584;2022-09-02T03:49:56;22.20;60.70
37782;DHT22;23621;50.878;4.584;2022-09-02T03:52:23;22.20;60.70
37782;DHT22;23621;50.878;4.584;2022-09-02T03:54:51;22.20;60.80
37782;DHT22;23621;50.878;4.584;2022-09-02T03:57:18;22.20;60.90
37782;DHT22;23621;50.878;4.584;2022-09-02T03:59:46;22.20;60.90
37782;DHT22;23621;50.878;4.584;2022-09-02T04:02:13;22.10;60.80
37782;DHT22;23621;50.878;4.584;2022-09-02T04:04:40;22.10;60.80
37782;DHT22;23621;50.878;4.584;2022-09-02T04:07:07;22.10;60.80
37782;DHT22;23621;50.878;4.584;2022-09-02T04:09:34;22.10;61.00
37782;DHT22;23621;50.878;4.584;2022-09-02T04:12:03;22.10;61.20
37782;DHT22;23621;50.878;4.584;2022-09-02T04:14:30;22.10;61.50
37782;DHT22;23621;50.878;4.584;2022-09-02T04:16:57;22.00;61.50
37782;DHT22;23621;50.878;4.584;2022-09-02T04:19:24;22.10;61.90
37782;DHT22;23621;50.878;4.584;2022-09-02T04:21:50;22.00;61.90
37782;DHT22;23621;50.878;4.584;2022-09-02T04:24:17;22.10;62.10
37782;DHT22;23621;50.878;4.584;2022-09-02T04:26:44;22.10;62.20
37782;DHT22;23621;50.878;4.584;2022-09-02T04:29:11;22.10;62.30
37782;DHT22;23621;50.878;4.584;2022-09-02T04:31:38;22.20;62.40
37782;DHT22;23621;50.878;4.584;2022-09-02T04:34:05;22.20;62.30
37782;DHT22;23621;50.878;4.584;2022-09-02T04:36:33;22.30;62.40
37782;DHT22;23621;50.878;4.584;2022-09-02T04:39:00;22.30;62.30
37782;DHT22;23621;50.878;4.584;2022-09-02T04:41:28;22.30;62.30
37782;DHT22;23621;50.878;4.584;2022-09-02T04:43:57;22.30;62.30
37782;DHT22;23621;50.878;4.584;2022-09-02T04:46:25;22.40;62.40
37782;DHT22;23621;50.878;4.584;2022-09-02T04:49:01;22.40;62.30
37782;DHT22;23621;50.878;4.584;2022-09-02T04:51:29;22.40;62.30
37782;DHT22;23621;50.878;4.584;2022-09-02T04:53:56;22.50;62.50
37782;DHT22;23621;50.878;4.584;2022-09-02T04:56:25;22.50;62.50
37782;DHT22;23621;50.878;4.584;2022-09-02T04:58:53;22.50;62.60
37782;DHT22;23621;50.878;4.584;2022-09-02T05:01:23;22.60;62.60
37782;DHT22;23621;50.878;4.584;2022-09-02T05:03:50;22.60;62.50
37782;DHT22;23621;50.878;4.584;2022-09-02T05:06:20;22.60;62.40
37782;DHT22;23621;50.878;4.584;2022-09-02T05:08:47;22.60;62.40
37782;DHT22;23621;50.878;4.584;2022-09-02T05:11:17;22.60;62.40
37782;DHT22;23621;50.878;4.584;2022-09-02T05:13:45;22.60;62.50
37782;DHT22;23621;50.878;4.584;2022-09-02T05:16:19;22.60;62.50
37782;DHT22;23621;50.878;4.584;2022-09-02T05:18:47;22.60;62.60
37782;DHT22;23621;50.878;4.584;2022-09-02T05:21:14;22.60;62.60
37782;DHT22;23621;50.878;4.584;2022-09-02T05:23:41;22.60;62.50
37782;DHT22;23621;50.878;4.584;2022-09-02T05:26:10;22.60;62.60
37782;DHT22;23621;50.878;4.584;2022-09-02T05:28:39;22.60;62.80
37782;DHT22;23621;50.878;4.584;2022-09-02T05:31:09;22.60;62.90
37782;DHT22;23621;50.878;4.584;2022-09-02T05:33:37;22.50;62.80
37782;DHT22;23621;50.878;4.584;2022-09-02T05:36:09;22.60;62.90
37782;DHT22;23621;50.878;4.584;2022-09-02T05:38:41;22.50;62.80
37782;DHT22;23621;50.878;4.584;2022-09-02T05:41:11;22.60;62.90
37782;DHT22;23621;50.878;4.584;2022-09-02T05:43:41;22.50;62.90
37782;DHT22;23621;50.878;4.584;2022-09-02T05:46:09;22.60;63.00
37782;DHT22;23621;50.878;4.584;2022-09-02T05:48:38;22.60;63.00
37782;DHT22;23621;50.878;4.584;2022-09-02T05:51:23;22.60;63.10
37782;DHT22;23621;50.878;4.584;2022-09-02T05:53:56;22.60;63.10
37782;DHT22;23621;50.878;4.584;2022-09-02T05:56:23;22.60;63.10
37782;DHT22;23621;50.878;4.584;2022-09-02T05:58:50;22.60;63.20
37782;DHT22;23621;50.878;4.584;2022-09-02T06:01:18;22.60;63.20
37782;DHT22;23621;50.878;4.584;2022-09-02T06:03:45;22.70;63.40
37782;DHT22;23621;50.878;4.584;2022-09-02T06:06:13;22.70;63.20
37782;DHT22;23621;50.878;4.584;2022-09-02T06:08:40;22.70;63.20
37782;DHT22;23621;50.878;4.584;2022-09-02T06:11:09;22.70;63.40
37782;DHT22;23621;50.878;4.584;2022-09-02T06:13:39;22.80;63.50
37782;DHT22;23621;50.878;4.584;2022-09-02T06:16:06;22.80;63.50
37782;DHT22;23621;50.878;4.584;2022-09-02T06:18:38;22.80;63.50
37782;DHT22;23621;50.878;4.584;2022-09-02T06:21:06;22.90;63.70
37782;DHT22;23621;50.878;4.584;2022-09-02T06:23:34;22.90;63.80
37782;DHT22;23621;50.878;4.584;2022-09-02T06:26:02;23.00;63.90
37782;DHT22;23621;50.878;4.584;2022-09-02T06:28:29;23.00;63.70
37782;DHT22;23621;50.878;4.584;2022-09-02T06:30:56;23.10;63.50
37782;DHT22;23621;50.878;4.584;2022-09-02T06:33:23;23.20;63.60
37782;DHT22;23621;50.878;4.584;2022-09-02T06:35:50;23.20;63.50
37782;DHT22;23621;50.878;4.584;2022-09-02T06:38:17;23.30;63.60
37782;DHT22;23621;50.878;4.584;2022-09-02T06:40:51;23.40;63.80
37782;DHT22;23621;50.878;4.584;2022-09-02T06:43:19;23.40;63.60
37782;DHT22;23621;50.878;4.584;2022-09-02T06:45:46;23.50;63.50
37782;DHT22;23621;50.878;4.584;2022-09-02T06:48:13;23.60;63.50
37782;DHT22;23621;50.878;4.584;2022-09-02T06:50:42;23.60;63.40
37782;DHT22;23621;50.878;4.584;2022-09-02T06:53:09;23.70;63.20
37782;DHT22;23621;50.878;4.584;2022-09-02T06:55:41;23.70;63.10
37782;DHT22;23621;50.878;4.584;2022-09-02T06:58:08;23.80;63.10
37782;DHT22;23621;50.878;4.584;2022-09-02T07:00:35;23.80;62.90
37782;DHT22;23621;50.878;4.584;2022-09-02T07:03:03;23.90;62.80
37782;DHT22;23621;50.878;4.584;2022-09-02T07:08:26;24.00;63.30
37782;DHT22;23621;50.878;4.584;2022-09-02T07:10:53;24.10;63.20
37782;DHT22;23621;50.878;4.584;2022-09-02T07:13:20;24.20;63.20
37782;DHT22;23621;50.878;4.584;2022-09-02T07:15:47;24.20;63.10
37782;DHT22;23621;50.878;4.584;2022-09-02T07:18:14;24.30;63.10
37782;DHT22;23621;50.878;4.584;2022-09-02T07:20:44;24.40;62.90
37782;DHT22;23621;50.878;4.584;2022-09-02T07:23:11;24.40;62.70
37782;DHT22;23621;50.878;4.584;2022-09-02T07:25:38;24.50;62.70
37782;DHT22;23621;50.878;4.584;2022-09-02T07:28:08;24.60;63.00
37782;DHT22;23621;50.878;4.584;2022-09-02T07:30:36;24.70;62.80
37782;DHT22;23621;50.878;4.584;2022-09-02T07:33:04;24.70;62.50
37782;DHT22;23621;50.878;4.584;2022-09-02T07:35:31;24.80;62.50
37782;DHT22;23621;50.878;4.584;2022-09-02T07:37:59;24.90;62.40
37782;DHT22;23621;50.878;4.584;2022-09-02T07:40:25;24.90;62.20
37782;DHT22;23621;50.878;4.584;2022-09-02T07:42:53;25.00;62.10
37782;DHT22;23621;50.878;4.584;2022-09-02T07:45:20;25.10;61.90
37782;DHT22;23621;50.878;4.584;2022-09-02T07:47:47;25.10;61.80
37782;DHT22;23621;50.878;4.584;2022-09-02T07:50:15;25.20;61.80
37782;DHT22;23621;50.878;4.584;2022-09-02T07:52:46;25.20;61.70
37782;DHT22;23621;50.878;4.584;2022-09-02T07:55:14;25.30;61.40
37782;DHT22;23621;50.878;4.584;2022-09-02T07:57:41;25.40;61.50
37782;DHT22;23621;50.878;4.584;2022-09-02T08:00:08;25.40;61.40
37782;DHT22;23621;50.878;4.584;2022-09-02T08:02:37;25.40;61.10
37782;DHT22;23621;50.878;4.584;2022-09-02T08:05:04;25.50;61.00
37782;DHT22;23621;50.878;4.584;2022-09-02T08:07:32;25.60;61.00
37782;DHT22;23621;50.878;4.584;2022-09-02T08:09:59;25.60;60.90
37782;DHT22;23621;50.878;4.584;2022-09-02T08:12:27;25.60;60.70
37782;DHT22;23621;50.878;4.584;2022-09-02T08:14:54;25.70;60.70
37782;DHT22;23621;50.878;4.584;2022-09-02T08:17:24;25.80;60.80
37782;DHT22;23621;50.878;4.584;2022-09-02T08:19:51;25.80;60.70
37782;DHT22;23621;50.878;4.584;2022-09-02T08:22:18;25.90;60.70
37782;DHT22;23621;50.878;4.584;2022-09-02T08:24:44;25.90;60.60
37782;DHT22;23621;50.878;4.584;2022-09-02T08:27:11;26.00;60.40
37782;DHT22;23621;50.878;4.584;2022-09-02T08:29:38;26.10;60.40
37782;DHT22;23621;50.878;4.584;2022-09-02T08:32:05;26.10;60.50
37782;DHT22;23621;50.878;4.584;2022-09-02T08:34:32;26.20;60.40
37782;DHT22;23621;50.878;4.584;2022-09-02T08:36:59;26.30;60.40
37782;DHT22;23621;50.878;4.584;2022-09-02T08:39:26;26.30;60.40
37782;DHT22;23621;50.878;4.584;2022-09-02T08:42:21;26.40;60.40
37782;DHT22;23621;50.878;4.584;2022-09-02T08:44:50;26.50;60.30
37782;DHT22;23621;50.878;4.584;2022-09-02T08:47:24;26.50;60.30
37782;DHT22;23621;50.878;4.584;2022-09-02T08:49:56;26.60;60.30
37782;DHT22;23621;50.878;4.584;2022-09-02T08:55:23;26.80;60.20
37782;DHT22;23621;50.878;4.584;2022-09-02T08:57:52;26.80;60.00
37782;DHT22;23621;50.878;4.584;2022-09-02T09:00:22;26.80;60.00
37782;DHT22;23621;50.878;4.584;2022-09-02T09:08:43;27.00;59.50
37782;DHT22;23621;50.878;4.584;2022-09-02T09:11:22;27.10;59.40
37782;DHT22;23621;50.878;4.584;2022-09-02T09:17:16;27.30;59.50
37782;DHT22;23621;50.878;4.584;2022-09-02T09:19:50;27.40;59.00
37782;DHT22;23621;50.878;4.584;2022-09-02T09:22:23;27.40;59.10
37782;DHT22;23621;50.878;4.584;2022-09-02T09:24:52;27.50;59.00
37782;DHT22;23621;50.878;4.584;2022-09-02T09:27:21;27.60;58.70
37782;DHT22;23621;50.878;4.584;2022-09-02T09:29:49;27.60;58.50
37782;DHT22;23621;50.878;4.584;2022-09-02T09:32:30;27.70;58.60
37782;DHT22;23621;50.878;4.584;2022-09-02T09:35:09;27.90;58.70
37782;DHT22;23621;50.878;4.584;2022-09-02T09:37:43;27.80;58.30
37782;DHT22;23621;50.878;4.584;2022-09-02T09:40:30;27.90;57.70
37782;DHT22;23621;50.878;4.584;2022-09-02T09:45:49;28.20;57.00
37782;DHT22;23621;50.878;4.584;2022-09-02T09:48:26;28.30;57.20
37782;DHT22;23621;50.878;4.584;2022-09-02T09:53:26;28.50;57.00
37782;DHT22;23621;50.878;4.584;2022-09-02T09:56:04;28.60;56.90
37782;DHT22;23621;50.878;4.584;2022-09-02T10:03:59;28.80;56.10
37782;DHT22;23621;50.878;4.584;2022-09-02T10:11:58;29.00;55.70
37782;DHT22;23621;50.878;4.584;2022-09-02T10:14:38;29.00;55.70
37782;DHT22;23621;50.878;4.584;2022-09-02T10:17:50;29.10;55.40
37782;DHT22;23621;50.878;4.584;2022-09-02T10:26:19;29.20;55.30
37782;DHT22;23621;50.878;4.584;2022-09-02T10:38:04;29.30;54.70
37782;DHT22;23621;50.878;4.584;2022-09-02T10:40:44;29.40;54.80
37782;DHT22;23621;50.878;4.584;2022-09-02T10:46:06;29.60;53.70
37782;DHT22;23621;50.878;4.584;2022-09-02T10:48:50;29.60;53.20
37782;DHT22;23621;50.878;4.584;2022-09-02T10:56:46;29.80;52.70
37782;DHT22;23621;50.878;4.584;2022-09-02T11:02:28;29.90;52.30
37782;DHT22;23621;50.878;4.584;2022-09-02T11:05:06;29.90;52.10
37782;DHT22;23621;50.878;4.584;2022-09-02T11:10:40;30.10;52.10
37782;DHT22;23621;50.878;4.584;2022-09-02T11:13:24;30.10;51.80
37782;DHT22;23621;50.878;4.584;2022-09-02T11:15:56;30.20;51.20
37782;DHT22;23621;50.878;4.584;2022-09-02T11:19:27;30.20;51.30
37782;DHT22;23621;50.878;4.584;2022-09-02T11:24:27;30.40;50.40
37782;DHT22;23621;50.878;4.584;2022-09-02T11:30:13;30.50;49.70
37782;DHT22;23621;50.878;4.584;2022-09-02T11:32:46;30.60;49.30
37782;DHT22;23621;50.878;4.584;2022-09-02T11:35:19;30.60;48.90
37782;DHT22;23621;50.878;4.584;2022-09-02T11:38:00;30.70;48.70
37782;DHT22;23621;50.878;4.584;2022-09-02T11:46:18;30.80;47.80
37782;DHT22;23621;50.878;4.584;2022-09-02T11:48:58;30.80;48.10
37782;DHT22;23621;50.878;4.584;2022-09-02T11:54:17;30.80;47.90
37782;DHT22;23621;50.878;4.584;2022-09-02T11:56:50;30.90;47.70
37782;DHT22;23621;50.878;4.584;2022-09-02T12:02:35;31.00;45.60
37782;DHT22;23621;50.878;4.584;2022-09-02T12:21:24;31.50;45.40
37782;DHT22;23621;50.878;4.584;2022-09-02T12:26:21;31.50;45.20
37782;DHT22;23621;50.878;4.584;2022-09-02T12:28:52;31.50;45.00
37782;DHT22;23621;50.878;4.584;2022-09-02T12:31:42;31.60;44.90
37782;DHT22;23621;50.878;4.584;2022-09-02T12:37:00;31.70;44.60
37782;DHT22;23621;50.878;4.584;2022-09-02T12:47:48;31.80;43.90
37782;DHT22;23621;50.878;4.584;2022-09-02T12:56:04;31.80;43.60
37782;DHT22;23621;50.878;4.584;2022-09-02T12:58:38;31.80;43.40
37782;DHT22;23621;50.878;4.584;2022-09-02T13:01:12;31.80;42.90
37782;DHT22;23621;50.878;4.584;2022-09-02T13:03:49;32.00;43.00
37782;DHT22;23621;50.878;4.584;2022-09-02T13:09:36;32.20;41.40
37782;DHT22;23621;50.878;4.584;2022-09-02T13:12:27;32.30;42.40
37782;DHT22;23621;50.878;4.584;2022-09-02T13:24:00;32.30;42.00
37782;DHT22;23621;50.878;4.584;2022-09-02T13:34:46;32.20;41.90
37782;DHT22;23621;50.878;4.584;2022-09-02T13:37:37;32.20;41.90
37782;DHT22;23621;50.878;4.584;2022-09-02T13:42:54;32.20;41.40
37782;DHT22;23621;50.878;4.584;2022-09-02T13:45:26;32.20;41.50
37782;DHT22;23621;50.878;4.584;2022-09-02T13:48:02;32.20;41.70
37782;DHT22;23621;50.878;4.584;2022-09-02T13:50:33;32.20;41.30
37782;DHT22;23621;50.878;4.584;2022-09-02T13:53:01;32.20;41.00
37782;DHT22;23621;50.878;4.584;2022-09-02T13:55:53;32.20;41.40
37782;DHT22;23621;50.878;4.584;2022-09-02T13:58:33;32.30;41.40
37782;DHT22;23621;50.878;4.584;2022-09-02T14:01:39;32.30;41.70
37782;DHT22;23621;50.878;4.584;2022-09-02T14:04:11;32.20;41.10
37782;DHT22;23621;50.878;4.584;2022-09-02T14:06:44;32.20;41.30
37782;DHT22;23621;50.878;4.584;2022-09-02T14:09:25;32.20;41.30
37782;DHT22;23621;50.878;4.584;2022-09-02T14:11:55;32.20;40.20
37782;DHT22;23621;50.878;4.584;2022-09-02T14:14:24;32.30;41.00
37782;DHT22;23621;50.878;4.584;2022-09-02T14:16:51;32.30;41.10
37782;DHT22;23621;50.878;4.584;2022-09-02T14:19:38;32.30;41.10
37782;DHT22;23621;50.878;4.584;2022-09-02T14:22:05;32.30;41.70
37782;DHT22;23621;50.878;4.584;2022-09-02T14:24:39;32.30;40.50
37782;DHT22;23621;50.878;4.584;2022-09-02T14:27:18;32.30;39.90
37782;DHT22;23621;50.878;4.584;2022-09-02T14:29:47;32.30;40.10
37782;DHT22;23621;50.878;4.584;2022-09-02T14:32:26;32.30;40.40
37782;DHT22;23621;50.878;4.584;2022-09-02T14:37:56;32.50;40.40
37782;DHT22;23621;50.878;4.584;2022-09-02T14:40:45;32.60;40.40
37782;DHT22;23621;50.878;4.584;2022-09-02T14:43:14;32.70;40.00
37782;DHT22;23621;50.878;4.584;2022-09-02T14:45:45;32.70;39.70
37782;DHT22;23621;50.878;4.584;2022-09-02T14:48:24;32.70;38.70
37782;DHT22;23621;50.878;4.584;2022-09-02T14:51:04;32.70;38.60
37782;DHT22;23621;50.878;4.584;2022-09-02T14:53:32;32.80;39.90
37782;DHT22;23621;50.878;4.584;2022-09-02T14:56:00;32.80;40.00
37782;DHT22;23621;50.878;4.584;2022-09-02T14:58:27;32.80;39.20
37782;DHT22;23621;50.878;4.584;2022-09-02T15:00:59;32.80;38.60
37782;DHT22;23621;50.878;4.584;2022-09-02T15:03:30;32.90;38.80
37782;DHT22;23621;50.878;4.584;2022-09-02T15:05:57;32.90;39.00
37782;DHT22;23621;50.878;4.584;2022-09-02T15:08:24;32.80;38.80
37782;DHT22;23621;50.878;4.584;2022-09-02T15:10:52;32.90;38.60
37782;DHT22;23621;50.878;4.584;2022-09-02T15:13:31;32.90;39.30
37782;DHT22;23621;50.878;4.584;2022-09-02T15:16:00;32.90;39.10
37782;DHT22;23621;50.878;4.584;2022-09-02T15:18:28;32.90;39.30
37782;DHT22;23621;50.878;4.584;2022-09-02T15:20:55;32.90;39.10
37782;DHT22;23621;50.878;4.584;2022-09-02T15:23:23;33.00;39.20
37782;DHT22;23621;50.878;4.584;2022-09-02T15:25:52;33.10;38.90
37782;DHT22;23621;50.878;4.584;2022-09-02T15:28:19;33.10;39.00
37782;DHT22;23621;50.878;4.584;2022-09-02T15:30:46;33.50;38.80
37782;DHT22;23621;50.878;4.584;2022-09-02T15:33:13;34.20;38.20
37782;DHT22;23621;50.878;4.584;2022-09-02T15:35:43;34.70;37.50
37782;DHT22;23621;50.878;4.584;2022-09-02T15:38:10;34.60;37.00
37782;DHT22;23621;50.878;4.584;2022-09-02T15:40:38;34.50;36.90
37782;DHT22;23621;50.878;4.584;2022-09-02T15:43:05;34.20;37.20
37782;DHT22;23621;50.878;4.584;2022-09-02T15:45:31;34.00;38.20
37782;DHT22;23621;50.878;4.584;2022-09-02T15:47:59;33.80;38.20
37782;DHT22;23621;50.878;4.584;2022-09-02T15:50:25;33.70;38.60
37782;DHT22;23621;50.878;4.584;2022-09-02T15:52:56;33.50;38.50
37782;DHT22;23621;50.878;4.584;2022-09-02T15:55:23;33.50;38.70
37782;DHT22;23621;50.878;4.584;2022-09-02T15:57:55;33.50;38.90
37782;DHT22;23621;50.878;4.584;2022-09-02T16:00:22;33.50;38.40
37782;DHT22;23621;50.878;4.584;2022-09-02T16:02:54;33.50;38.40
37782;DHT22;23621;50.878;4.584;2022-09-02T16:05:23;33.50;38.30
37782;DHT22;23621;50.878;4.584;2022-09-02T16:07:50;33.50;38.50
37782;DHT22;23621;50.878;4.584;2022-09-02T16:10:20;33.40;38.50
37782;DHT22;23621;50.878;4.584;2022-09-02T16:12:47;33.30;38.60
37782;DHT22;23621;50.878;4.584;2022-09-02T16:15:14;33.30;39.20
37782;DHT22;23621;50.878;4.584;2022-09-02T16:17:41;33.30;39.40
37782;DHT22;23621;50.878;4.584;2022-09-02T16:20:08;33.30;39.60
37782;DHT22;23621;50.878;4.584;2022-09-02T16:22:35;33.30;39.40
37782;DHT22;23621;50.878;4.584;2022-09-02T16:25:01;33.40;38.90
37782;DHT22;23621;50.878;4.584;2022-09-02T16:27:28;33.30;38.60
37782;DHT22;23621;50.878;4.584;2022-09-02T16:30:18;33.30;39.10
37782;DHT22;23621;50.878;4.584;2022-09-02T16:32:46;33.30;39.80
37782;DHT22;23621;50.878;4.584;2022-09-02T16:35:13;33.20;40.00
37782;DHT22;23621;50.878;4.584;2022-09-02T16:37:40;33.20;40.00
37782;DHT22;23621;50.878;4.584;2022-09-02T16:40:08;33.10;40.00
37782;DHT22;23621;50.878;4.584;2022-09-02T16:42:35;33.00;40.20
37782;DHT22;23621;50.878;4.584;2022-09-02T16:45:04;33.00;40.40
37782;DHT22;23621;50.878;4.584;2022-09-02T16:47:31;32.90;40.70
37782;DHT22;23621;50.878;4.584;2022-09-02T16:49:58;32.80;40.70
37782;DHT22;23621;50.878;4.584;2022-09-02T16:52:24;32.70;40.70
37782;DHT22;23621;50.878;4.584;2022-09-02T16:54:51;32.70;41.00
37782;DHT22;23621;50.878;4.584;2022-09-02T16:57:18;32.60;41.30
37782;DHT22;23621;50.878;4.584;2022-09-02T16:59:45;32.60;41.20
37782;DHT22;23621;50.878;4.584;2022-09-02T17:02:12;32.50;41.40
37782;DHT22;23621;50.878;4.584;2022-09-02T17:04:38;32.50;41.50
37782;DHT22;23621;50.878;4.584;2022-09-02T17:07:05;32.40;41.40
37782;DHT22;23621;50.878;4.584;2022-09-02T17:09:32;32.40;40.80
37782;DHT22;23621;50.878;4.584;2022-09-02T17:11:59;32.40;40.80
37782;DHT22;23621;50.878;4.584;2022-09-02T17:14:26;32.30;40.60
37782;DHT22;23621;50.878;4.584;2022-09-02T17:16:52;32.20;40.70
37782;DHT22;23621;50.878;4.584;2022-09-02T17:19:20;32.20;40.40
37782;DHT22;23621;50.878;4.584;2022-09-02T17:24:17;32.10;40.50
37782;DHT22;23621;50.878;4.584;2022-09-02T17:26:47;32.10;40.70
37782;DHT22;23621;50.878;4.584;2022-09-02T17:29:19;32.00;40.60
37782;DHT22;23621;50.878;4.584;2022-09-02T17:32:06;32.00;40.80
37782;DHT22;23621;50.878;4.584;2022-09-02T17:34:33;32.00;41.10
37782;DHT22;23621;50.878;4.584;2022-09-02T17:37:01;32.00;41.10
37782;DHT22;23621;50.878;4.584;2022-09-02T17:39:27;31.90;41.10
37782;DHT22;23621;50.878;4.584;2022-09-02T17:41:54;31.90;41.00
37782;DHT22;23621;50.878;4.584;2022-09-02T17:46:59;31.90;41.30
37782;DHT22;23621;50.878;4.584;2022-09-02T17:49:26;31.80;41.40
37782;DHT22;23621;50.878;4.584;2022-09-02T17:51:53;31.80;41.40
37782;DHT22;23621;50.878;4.584;2022-09-02T17:54:20;31.70;41.40
37782;DHT22;23621;50.878;4.584;2022-09-02T18:05:15;31.60;41.40
37782;DHT22;23621;50.878;4.584;2022-09-02T18:10:34;31.60;41.60
37782;DHT22;23621;50.878;4.584;2022-09-02T18:13:09;31.50;41.60
37782;DHT22;23621;50.878;4.584;2022-09-02T18:18:27;31.50;41.70
37782;DHT22;23621;50.878;4.584;2022-09-02T18:21:10;31.40;41.70
37782;DHT22;23621;50.878;4.584;2022-09-02T18:23:59;31.40;41.80
37782;DHT22;23621;50.878;4.584;2022-09-02T18:29:35;31.40;41.70
37782;DHT22;23621;50.878;4.584;2022-09-02T18:46:09;31.30;42.30
37782;DHT22;23621;50.878;4.584;2022-09-02T18:48:38;31.40;42.30